createdAt,value
2018-05-15T00:02:06.945Z,9.50
2018-05-15T00:04:35.269Z,9.63
2018-05-15T00:07:02.877Z,9.73
2018-05-15T00:09:30.487Z,10.87
2018-05-15T00:11:58.830Z,11.63
2018-05-15T00:14:26.483Z,10.70
2018-05-15T00:16:54.118Z,10.63
2018-05-15T00:19:22.533Z,10.63
2018-05-15T00:21:50.289Z,10.27
2018-05-15T00:24:18.666Z,10.43
2018-05-15T00:26:46.240Z,10.80
2018-05-15T00:29:13.836Z,11.97
2018-05-15T00:31:42.173Z,10.17
2018-05-15T00:34:09.748Z,9.47
2018-05-15T00:36:37.302Z,8.97
2018-05-15T00:39:05.693Z,9.60
2018-05-15T00:41:33.314Z,9.43
2018-05-15T00:44:01.712Z,9.00
2018-05-15T00:46:30.064Z,9.83
2018-05-15T00:48:57.674Z,8.90
2018-05-15T00:51:26.074Z,8.60
2018-05-15T00:53:54.430Z,9.20
2018-05-15T00:56:22.029Z,8.43
2018-05-15T00:58:50.576Z,9.80
2018-05-15T01:01:18.144Z,8.37
2018-05-15T01:03:45.696Z,8.90
2018-05-15T01:06:13.234Z,8.57
2018-05-15T01:08:41.549Z,9.67
2018-05-15T01:11:09.100Z,8.63
2018-05-15T01:13:36.691Z,9.03
2018-05-15T01:16:04.249Z,8.90
2018-05-15T01:18:32.625Z,8.93
2018-05-15T01:21:00.201Z,8.70
2018-05-15T01:23:27.757Z,9.47
2018-05-15T01:25:55.292Z,8.40
2018-05-15T01:28:22.832Z,9.13
2018-05-15T01:30:51.129Z,9.80
2018-05-15T01:33:18.699Z,8.77
2018-05-15T01:35:46.235Z,10.23
2018-05-15T01:38:13.810Z,8.90
2018-05-15T01:40:41.387Z,9.13
2018-05-15T01:43:08.990Z,8.43
2018-05-15T01:45:36.517Z,8.33
2018-05-15T01:48:04.093Z,8.80
2018-05-15T01:50:32.428Z,8.27
2018-05-15T01:53:00.023Z,8.37
2018-05-15T01:55:27.598Z,9.13
2018-05-15T01:57:55.234Z,8.30
2018-05-15T02:00:22.989Z,9.60
2018-05-15T02:02:50.765Z,9.10
2018-05-15T02:05:18.342Z,9.23
2018-05-15T02:07:46.621Z,9.43
2018-05-15T02:10:14.157Z,10.43
2018-05-15T02:12:41.767Z,9.53
2018-05-15T02:15:09.362Z,9.90
2018-05-15T02:17:37.698Z,9.47
2018-05-15T02:20:05.280Z,8.80
2018-05-15T02:22:32.829Z,9.73
2018-05-15T02:25:00.385Z,10.33
2018-05-15T02:27:27.985Z,9.90
2018-05-15T02:29:55.556Z,9.80
2018-05-15T02:32:23.077Z,10.00
2018-05-15T02:34:50.712Z,10.00
2018-05-15T02:37:18.443Z,9.30
2018-05-15T02:39:46.059Z,9.90
2018-05-15T02:42:13.690Z,9.87
2018-05-15T02:44:41.263Z,9.93
2018-05-15T02:47:08.905Z,10.70
2018-05-15T02:49:36.580Z,10.20
2018-05-15T02:52:04.169Z,9.97
2018-05-15T02:54:31.797Z,10.50
2018-05-15T02:56:59.450Z,10.63
2018-05-15T02:59:27.049Z,10.30
2018-05-15T03:01:54.638Z,10.60
2018-05-15T03:04:22.212Z,10.83
2018-05-15T03:06:49.773Z,10.30
2018-05-15T03:09:17.384Z,11.83
2018-05-15T03:11:45.315Z,11.00
2018-05-15T03:14:12.923Z,11.00
2018-05-15T03:16:41.193Z,11.00
2018-05-15T03:19:09.535Z,10.33
2018-05-15T03:21:37.095Z,11.20
2018-05-15T03:24:04.769Z,11.03
2018-05-15T03:26:32.547Z,10.40
2018-05-15T03:29:00.380Z,10.93
2018-05-15T03:31:28.304Z,11.00
2018-05-15T03:33:56.595Z,11.80
2018-05-15T03:36:24.421Z,10.70
2018-05-15T03:38:52.150Z,11.77
2018-05-15T03:41:19.808Z,10.93
2018-05-15T03:43:48.522Z,11.70
2018-05-15T03:46:16.299Z,11.40
2018-05-15T03:48:46.454Z,10.10
2018-05-15T03:51:14.401Z,12.30
2018-05-15T03:53:43.014Z,10.70
2018-05-15T03:56:10.653Z,10.33
2018-05-15T03:58:38.202Z,10.33
2018-05-15T04:01:18.581Z,11.70
2018-05-15T04:03:58.217Z,10.80
2018-05-15T04:06:37.593Z,10.53
2018-05-15T04:09:05.413Z,10.00
2018-05-15T04:11:34.108Z,10.53
2018-05-15T04:14:01.983Z,11.50
2018-05-15T04:16:30.290Z,10.40
2018-05-15T04:18:58.944Z,10.60
2018-05-15T04:21:27.175Z,9.93
2018-05-15T04:23:56.378Z,11.07
2018-05-15T04:26:24.185Z,10.63
2018-05-15T04:28:51.926Z,11.50
2018-05-15T04:31:19.703Z,10.30
2018-05-15T04:33:47.376Z,9.80
2018-05-15T04:36:15.041Z,9.37
2018-05-15T04:38:43.618Z,9.80
2018-05-15T04:41:11.284Z,9.53
2018-05-15T04:43:38.993Z,9.10
2018-05-15T04:46:07.374Z,9.40
2018-05-15T04:48:36.190Z,8.80
2018-05-15T04:51:04.381Z,9.17
2018-05-15T04:53:32.081Z,9.60
2018-05-15T04:56:00.035Z,9.50
2018-05-15T04:58:27.662Z,9.40
2018-05-15T05:00:55.526Z,9.30
2018-05-15T05:03:23.203Z,9.80
2018-05-15T05:05:51.186Z,9.20
2018-05-15T05:08:27.570Z,9.93
2018-05-15T05:10:55.378Z,8.80
2018-05-15T05:13:23.680Z,8.93
2018-05-15T05:15:52.421Z,8.50
2018-05-15T05:18:20.231Z,8.20
2018-05-15T05:20:47.916Z,8.70
2018-05-15T05:23:16.362Z,8.30
2018-05-15T05:25:43.936Z,8.03
2018-05-15T05:28:11.596Z,7.93
2018-05-15T05:30:39.254Z,6.80
2018-05-15T05:33:06.904Z,8.27
2018-05-15T05:35:35.197Z,7.37
2018-05-15T05:38:02.707Z,6.90
2018-05-15T05:40:30.307Z,6.87
2018-05-15T05:42:58.185Z,8.20
2018-05-15T05:45:25.715Z,6.43
2018-05-15T05:47:53.483Z,6.50
2018-05-15T05:50:21.868Z,6.00
2018-05-15T05:52:50.160Z,5.60
2018-05-15T05:55:18.518Z,6.13
2018-05-15T05:57:46.130Z,5.20
2018-05-15T06:00:16.084Z,5.37
2018-05-15T06:02:43.640Z,5.40
2018-05-15T06:05:11.206Z,5.60
2018-05-15T06:07:38.791Z,5.63
2018-05-15T06:10:06.303Z,4.80
2018-05-15T06:12:33.899Z,5.40
2018-05-15T06:15:02.175Z,5.50
2018-05-15T06:17:29.703Z,4.80
2018-05-15T06:19:57.215Z,5.00
2018-05-15T06:22:24.751Z,4.30
2018-05-15T06:24:52.354Z,4.03
2018-05-15T06:27:19.880Z,4.70
2018-05-15T06:29:47.416Z,4.27
2018-05-15T06:32:14.954Z,4.20
2018-05-15T06:34:42.589Z,3.77
2018-05-15T06:37:10.107Z,3.47
2018-05-15T06:39:37.615Z,3.47
2018-05-15T06:42:06.008Z,3.60
2018-05-15T06:44:34.272Z,3.60
2018-05-15T06:47:01.933Z,2.85
2018-05-15T06:49:29.458Z,3.10
2018-05-15T06:51:57.045Z,3.00
2018-05-15T06:54:24.574Z,3.33
2018-05-15T06:56:52.206Z,2.67
2018-05-15T06:59:19.877Z,3.00
2018-05-15T07:01:47.489Z,3.40
2018-05-15T07:04:14.995Z,3.33
2018-05-15T07:06:42.545Z,3.15
2018-05-15T07:09:10.040Z,3.00
2018-05-15T07:11:37.568Z,3.40
2018-05-15T07:14:05.171Z,3.50
2018-05-15T07:16:32.646Z,2.70
2018-05-15T07:19:00.924Z,2.87
2018-05-15T07:21:29.237Z,2.50
2018-05-15T07:23:56.885Z,2.40
2018-05-15T07:26:24.424Z,2.12
2018-05-15T07:28:51.965Z,2.75
2018-05-15T07:31:19.459Z,2.60
2018-05-15T07:33:47.294Z,2.62
2018-05-15T07:36:15.581Z,2.45
2018-05-15T07:38:43.882Z,2.10
2018-05-15T07:41:11.377Z,2.30
2018-05-15T07:43:38.959Z,2.00
2018-05-15T07:46:06.556Z,2.75
2018-05-15T07:48:34.343Z,2.33
2018-05-15T07:51:01.925Z,2.37
2018-05-15T07:53:30.207Z,2.28
2018-05-15T07:55:57.837Z,2.30
2018-05-15T07:58:25.360Z,1.85
2018-05-15T08:00:53.645Z,2.05
2018-05-15T08:03:21.959Z,2.10
2018-05-15T08:05:49.577Z,1.87
2018-05-15T08:08:17.121Z,1.85
2018-05-15T08:10:44.637Z,1.80
2018-05-15T08:13:12.252Z,2.28
2018-05-15T08:15:39.842Z,1.90
2018-05-15T08:18:07.401Z,2.30
2018-05-15T08:20:34.908Z,1.67
2018-05-15T08:23:02.448Z,1.80
2018-05-15T08:25:29.969Z,2.28
2018-05-15T08:27:57.516Z,2.00
2018-05-15T08:30:25.018Z,1.75
2018-05-15T08:32:52.554Z,2.15
2018-05-15T08:35:20.115Z,1.77
2018-05-15T08:37:47.631Z,1.70
2018-05-15T08:40:15.280Z,1.90
2018-05-15T08:42:42.797Z,1.70
2018-05-15T08:45:11.073Z,2.03
2018-05-15T08:47:38.604Z,1.90
2018-05-15T08:50:06.128Z,2.08
2018-05-15T08:52:34.401Z,1.70
2018-05-15T08:55:01.997Z,2.03
2018-05-15T08:57:29.495Z,2.00
2018-05-15T08:59:57.039Z,2.03
2018-05-15T09:02:24.552Z,1.87
2018-05-15T09:04:52.084Z,1.80
2018-05-15T09:07:19.596Z,1.90
2018-05-15T09:09:47.119Z,1.65
2018-05-15T09:12:15.404Z,1.80
2018-05-15T09:14:43.714Z,1.50
2018-05-15T09:17:11.218Z,1.62
2018-05-15T09:19:38.803Z,1.55
2018-05-15T09:22:06.412Z,1.90
2018-05-15T09:24:34.836Z,1.60
2018-05-15T09:27:02.396Z,1.60
2018-05-15T09:29:29.928Z,1.60
2018-05-15T09:31:57.433Z,1.85
2018-05-15T09:34:25.112Z,1.98
2018-05-15T09:36:52.772Z,2.10
2018-05-15T09:39:21.091Z,3.13
2018-05-15T09:41:48.650Z,2.93
2018-05-15T09:44:16.259Z,3.90
2018-05-15T09:46:43.757Z,3.90
2018-05-15T09:49:11.297Z,4.50
2018-05-15T09:51:38.839Z,4.03
2018-05-15T09:54:06.501Z,4.90
2018-05-15T09:56:34.840Z,4.87
2018-05-15T09:59:02.475Z,4.87
2018-05-15T10:01:30.080Z,4.87
2018-05-15T10:03:57.753Z,5.03
2018-05-15T10:06:25.248Z,4.90
2018-05-15T10:08:52.859Z,5.80
2018-05-15T10:11:20.472Z,5.27
2018-05-15T10:13:48.041Z,5.27
2018-05-15T10:16:15.536Z,4.63
2018-05-15T10:18:44.276Z,4.57
2018-05-15T10:21:11.793Z,5.10
2018-05-15T10:23:39.404Z,5.47
2018-05-15T10:26:07.702Z,4.93
2018-05-15T10:28:46.086Z,5.37
2018-05-15T10:31:13.606Z,5.40
2018-05-15T10:33:42.205Z,5.57
2018-05-15T10:36:09.741Z,5.60
2018-05-15T10:38:37.240Z,4.97
2018-05-15T10:41:05.537Z,5.00
2018-05-15T10:43:33.043Z,4.87
2018-05-15T10:46:00.719Z,5.57
2018-05-15T10:48:28.495Z,5.00
2018-05-15T10:50:56.217Z,5.50
2018-05-15T10:53:24.931Z,5.43
2018-05-15T10:55:52.817Z,5.53
2018-05-15T10:58:20.373Z,5.30
2018-05-15T11:00:48.823Z,5.70
2018-05-15T11:03:16.491Z,5.50
2018-05-15T11:05:44.227Z,5.10
2018-05-15T11:08:11.801Z,5.50
2018-05-15T11:10:39.517Z,5.00
2018-05-15T11:13:07.090Z,5.10
2018-05-15T11:15:34.790Z,5.40
2018-05-15T11:18:14.474Z,5.73
2018-05-15T11:20:54.860Z,5.87
2018-05-15T11:23:34.310Z,6.10
2018-05-15T11:26:01.949Z,5.93
2018-05-15T11:28:29.758Z,5.10
2018-05-15T11:30:57.284Z,5.80
2018-05-15T11:33:24.813Z,5.97
2018-05-15T11:35:52.583Z,5.60
2018-05-15T11:38:20.128Z,5.67
2018-05-15T11:40:48.682Z,5.67
2018-05-15T11:43:16.406Z,5.50
2018-05-15T11:45:44.896Z,6.30
2018-05-15T11:48:13.855Z,5.50
2018-05-15T11:50:42.628Z,5.60
2018-05-15T11:53:10.090Z,5.67
2018-05-15T11:55:42.711Z,6.63
2018-05-15T11:58:04.957Z,6.10
2018-05-15T12:00:32.504Z,6.37
2018-05-15T12:03:00.177Z,5.80
2018-05-15T12:05:27.792Z,5.50
2018-05-15T12:07:56.058Z,5.43
2018-05-15T12:10:23.598Z,6.67
2018-05-15T12:12:51.878Z,5.13
2018-05-15T12:15:20.173Z,5.43
2018-05-15T12:17:48.439Z,6.50
2018-05-15T12:20:15.935Z,5.57
2018-05-15T12:22:44.452Z,5.63
2018-05-15T12:25:12.023Z,5.37
2018-05-15T12:27:39.532Z,5.70
2018-05-15T12:30:07.036Z,5.60
2018-05-15T12:32:35.326Z,6.17
2018-05-15T12:35:03.593Z,6.30
2018-05-15T12:37:31.119Z,6.67
2018-05-15T12:39:58.618Z,6.57
2018-05-15T12:42:26.192Z,6.70
2018-05-15T12:44:53.738Z,6.80
2018-05-15T12:47:21.288Z,6.20
2018-05-15T12:49:49.025Z,6.07
2018-05-15T12:52:16.580Z,6.50
2018-05-15T12:54:44.862Z,7.20
2018-05-15T12:57:12.540Z,6.80
2018-05-15T12:59:40.033Z,7.37
2018-05-15T13:02:07.583Z,7.00
2018-05-15T13:04:35.085Z,7.33
2018-05-15T13:07:02.630Z,7.20
2018-05-15T13:09:30.120Z,7.33
2018-05-15T13:11:57.635Z,6.03
2018-05-15T13:14:25.192Z,7.03
2018-05-15T13:16:53.500Z,6.73
2018-05-15T13:19:20.993Z,6.33
2018-05-15T13:21:48.521Z,6.70
2018-05-15T13:24:16.780Z,6.90
2018-05-15T13:26:44.305Z,6.00
2018-05-15T13:29:11.953Z,5.83
2018-05-15T13:31:40.236Z,6.50
2018-05-15T13:34:08.547Z,7.20
2018-05-15T13:36:36.127Z,6.30
2018-05-15T13:39:03.629Z,6.20
2018-05-15T13:41:31.933Z,5.90
2018-05-15T13:43:59.433Z,6.57
2018-05-15T13:46:27.713Z,5.97
2018-05-15T13:48:56.004Z,5.20
2018-05-15T13:51:24.280Z,6.17
2018-05-15T13:53:51.799Z,6.00
2018-05-15T13:56:19.587Z,6.00
2018-05-15T13:58:47.240Z,5.90
2018-05-15T14:01:15.373Z,6.40
2018-05-15T14:03:42.997Z,5.60
2018-05-15T14:06:10.541Z,6.00
2018-05-15T14:08:39.208Z,6.60
2018-05-15T14:11:06.738Z,6.30
2018-05-15T14:13:34.284Z,5.80
2018-05-15T14:16:02.558Z,6.10
2018-05-15T14:18:30.129Z,6.33
2018-05-15T14:20:57.652Z,5.37
2018-05-15T14:23:25.167Z,5.70
2018-05-15T14:25:52.682Z,5.10
2018-05-15T14:28:20.220Z,6.33
2018-05-15T14:30:47.781Z,5.90
2018-05-15T14:33:15.295Z,5.40
2018-05-15T14:35:42.808Z,5.23
2018-05-15T14:38:10.675Z,6.07
2018-05-15T14:40:38.171Z,5.60
2018-05-15T14:43:17.403Z,6.03
2018-05-15T14:45:44.921Z,6.20
2018-05-15T14:48:12.992Z,5.37
2018-05-15T14:53:45.590Z,5.53
2018-05-15T14:56:13.430Z,5.87
2018-05-15T14:58:41.199Z,5.53
2018-05-15T15:01:08.710Z,6.13
2018-05-15T15:03:36.550Z,4.60
2018-05-15T15:06:04.045Z,5.33
2018-05-15T15:08:31.952Z,4.80
2018-05-15T15:10:59.515Z,5.00
2018-05-15T15:13:27.348Z,4.77
2018-05-15T15:15:55.741Z,5.60
2018-05-15T15:18:23.723Z,5.37
2018-05-15T15:20:51.492Z,6.30
2018-05-15T15:23:19.773Z,6.80
2018-05-15T15:25:48.259Z,6.47
2018-05-15T15:28:15.825Z,6.80
2018-05-15T15:30:43.531Z,6.43
2018-05-15T15:33:11.101Z,7.30
2018-05-15T15:35:38.609Z,6.73
2018-05-15T15:38:06.169Z,6.47
2018-05-15T15:40:33.699Z,5.53
2018-05-15T15:43:02.003Z,6.10
2018-05-15T15:45:29.632Z,6.60
2018-05-15T15:47:57.141Z,5.40
2018-05-15T15:50:25.469Z,5.67
2018-05-15T15:52:52.975Z,6.37
2018-05-15T15:55:20.657Z,6.37
2018-05-15T15:57:48.422Z,6.17
2018-05-15T16:00:16.023Z,5.90
2018-05-15T16:02:44.302Z,6.10
2018-05-15T16:05:11.848Z,6.27
2018-05-15T16:07:39.516Z,6.57
2018-05-15T16:10:07.142Z,6.30
2018-05-15T16:12:34.675Z,6.03
2018-05-15T16:15:02.450Z,5.63
2018-05-15T16:17:30.003Z,6.23
2018-05-15T16:19:57.641Z,5.80
2018-05-15T16:22:25.316Z,6.40
2018-05-15T16:24:52.843Z,5.60
2018-05-15T16:27:20.427Z,5.70
2018-05-15T16:29:47.971Z,5.23
2018-05-15T16:32:15.477Z,5.23
2018-05-15T16:34:43.075Z,6.33
2018-05-15T16:37:10.598Z,5.80
2018-05-15T16:39:38.219Z,5.47
2018-05-15T16:42:05.708Z,5.40
2018-05-15T16:44:33.724Z,6.00
2018-05-15T16:47:01.260Z,5.90
2018-05-15T16:49:29.087Z,5.57
2018-05-15T16:51:56.723Z,5.90
2018-05-15T16:54:24.273Z,6.07
2018-05-15T16:56:51.857Z,5.97
2018-05-15T16:59:19.371Z,5.40
2018-05-15T17:01:47.182Z,4.90
2018-05-15T17:04:15.660Z,5.80
2018-05-15T17:06:43.462Z,5.20
2018-05-15T17:09:11.226Z,5.23
2018-05-15T17:11:39.928Z,5.17
2018-05-15T17:14:08.496Z,5.43
2018-05-15T17:16:39.898Z,5.40
2018-05-15T17:19:08.084Z,6.33
2018-05-15T17:21:35.645Z,5.23
2018-05-15T17:24:03.938Z,7.40
2018-05-15T17:26:32.259Z,5.13
2018-05-15T17:28:59.787Z,5.87
2018-05-15T17:31:28.379Z,5.80
2018-05-15T17:33:55.878Z,6.63
2018-05-15T17:36:23.410Z,5.87
2018-05-15T17:38:51.118Z,6.50
2018-05-15T17:41:19.138Z,5.43
2018-05-15T17:43:46.763Z,5.33
2018-05-15T17:46:15.280Z,7.50
2018-05-15T17:48:43.179Z,17.43
2018-05-15T17:51:10.932Z,6.30
2018-05-15T17:53:38.672Z,5.60
2018-05-15T17:56:06.333Z,8.07
2018-05-15T17:58:33.891Z,6.20
2018-05-15T18:01:02.694Z,5.50
2018-05-15T18:03:30.209Z,5.80
2018-05-15T18:05:58.510Z,5.50
2018-05-15T18:08:26.756Z,6.20
2018-05-15T18:10:54.474Z,5.93
2018-05-15T18:13:22.018Z,5.43
2018-05-15T18:15:50.746Z,5.83
2018-05-15T18:18:28.664Z,5.87
2018-05-15T18:20:56.233Z,5.50
2018-05-15T18:23:23.971Z,5.00
2018-05-15T18:25:53.496Z,4.97
2018-05-15T18:28:24.658Z,5.43
2018-05-15T18:30:52.337Z,5.50
2018-05-15T18:33:20.344Z,5.50
2018-05-15T18:35:48.121Z,5.77
2018-05-15T18:38:16.720Z,5.40
2018-05-15T18:40:44.737Z,5.73
2018-05-15T18:43:22.868Z,6.00
2018-05-15T18:45:51.757Z,5.03
2018-05-15T18:48:19.399Z,5.47
2018-05-15T18:50:50.387Z,5.90
2018-05-15T18:53:29.471Z,5.70
2018-05-15T18:56:03.007Z,5.13
2018-05-15T18:58:30.989Z,6.03
2018-05-15T19:00:59.558Z,5.13
2018-05-15T19:03:27.568Z,5.73
2018-05-15T19:05:55.871Z,6.50
2018-05-15T19:08:23.737Z,6.00
2018-05-15T19:10:51.962Z,5.20
2018-05-15T19:13:23.308Z,6.00
2018-05-15T19:15:51.026Z,5.20
2018-05-15T19:18:18.943Z,5.60
2018-05-15T19:20:57.145Z,6.13
2018-05-15T19:23:25.966Z,5.57
2018-05-15T19:25:53.948Z,6.27
2018-05-15T19:28:21.729Z,6.00
2018-05-15T19:30:51.449Z,5.87
2018-05-15T19:33:25.473Z,5.67
2018-05-15T19:35:55.502Z,5.93
2018-05-15T19:38:23.839Z,5.90
2018-05-15T19:40:52.214Z,6.70
2018-05-15T19:43:19.963Z,5.97
2018-05-15T19:45:47.541Z,6.67
2018-05-15T19:48:15.212Z,5.53
2018-05-15T19:50:42.764Z,5.53
2018-05-15T19:53:11.094Z,5.80
2018-05-15T19:55:38.707Z,5.60
2018-05-15T19:58:06.323Z,6.10
2018-05-15T20:00:33.984Z,7.07
2018-05-15T20:03:02.315Z,5.87
2018-05-15T20:05:29.979Z,5.50
2018-05-15T20:07:57.744Z,5.67
2018-05-15T20:10:25.360Z,8.70
2018-05-15T20:12:53.066Z,5.97
2018-05-15T20:15:21.072Z,5.50
2018-05-15T20:17:48.627Z,5.50
2018-05-15T20:20:16.922Z,6.30
2018-05-15T20:22:45.258Z,6.80
2018-05-15T20:25:12.913Z,6.17
2018-05-15T20:27:40.785Z,6.00
2018-05-15T20:30:08.425Z,5.60
2018-05-15T20:32:36.900Z,5.17
2018-05-15T20:35:04.695Z,5.90
2018-05-15T20:37:32.316Z,6.00
2018-05-15T20:39:59.890Z,5.23
2018-05-15T20:42:27.464Z,7.00
2018-05-15T20:44:55.018Z,6.57
2018-05-15T20:47:22.754Z,6.30
2018-05-15T20:49:50.331Z,6.40
2018-05-15T20:52:17.912Z,5.73
2018-05-15T20:54:46.297Z,5.60
2018-05-15T20:57:13.876Z,5.73
2018-05-15T20:59:42.339Z,6.40
2018-05-15T21:02:09.866Z,6.10
2018-05-15T21:04:37.444Z,7.10
2018-05-15T21:07:05.058Z,6.73
2018-05-15T21:09:32.658Z,6.07
2018-05-15T21:12:01.089Z,6.10
2018-05-15T21:14:38.624Z,6.60
2018-05-15T21:17:06.524Z,6.10
2018-05-15T21:19:34.084Z,7.03
2018-05-15T21:22:02.337Z,7.00
2018-05-15T21:24:29.994Z,6.70
2018-05-15T21:26:57.522Z,6.50
2018-05-15T21:29:25.105Z,6.93
2018-05-15T21:31:52.673Z,5.70
2018-05-15T21:34:20.248Z,6.20
2018-05-15T21:36:47.851Z,7.20
2018-05-15T21:39:16.140Z,7.03
2018-05-15T21:41:44.477Z,7.10
2018-05-15T21:44:12.030Z,7.00
2018-05-15T21:46:39.686Z,7.33
2018-05-15T21:49:07.281Z,7.83
2018-05-15T21:51:35.079Z,7.37
2018-05-15T21:54:02.693Z,7.77
2018-05-15T21:56:31.047Z,6.83
2018-05-15T21:58:58.744Z,7.83
2018-05-15T22:01:26.539Z,7.63
2018-05-15T22:03:56.270Z,8.43
2018-05-15T22:06:24.050Z,7.93
2018-05-15T22:08:51.965Z,7.73
2018-05-15T22:11:19.089Z,7.63
2018-05-15T22:13:58.557Z,7.73
2018-05-15T22:16:38.031Z,7.53
2018-05-15T22:19:17.691Z,8.30
2018-05-15T22:21:57.260Z,8.60
2018-05-15T22:24:28.703Z,7.73
2018-05-15T22:26:56.343Z,8.47
2018-05-15T22:29:24.419Z,8.60
2018-05-15T22:31:52.743Z,8.37
2018-05-15T22:34:20.380Z,8.57
2018-05-15T22:36:48.034Z,8.30
2018-05-15T22:39:15.640Z,9.30
2018-05-15T22:41:43.359Z,8.90
2018-05-15T22:44:10.941Z,9.60
2018-05-15T22:46:38.556Z,9.33
2018-05-15T22:49:06.913Z,10.67
2018-05-15T22:51:34.832Z,9.27
2018-05-15T22:54:02.702Z,8.80
2018-05-15T22:56:30.980Z,9.60
2018-05-15T22:58:59.268Z,9.93
2018-05-15T23:01:27.079Z,9.10
2018-05-15T23:03:54.676Z,9.63
2018-05-15T23:06:22.452Z,9.23
2018-05-15T23:08:50.005Z,9.80
2018-05-15T23:11:17.596Z,9.67
2018-05-15T23:13:45.146Z,9.03
2018-05-15T23:16:12.683Z,9.43
2018-05-15T23:18:41.163Z,9.33
2018-05-15T23:21:08.973Z,9.80
2018-05-15T23:23:37.680Z,10.00
2018-05-15T23:26:05.453Z,10.00
2018-05-15T23:28:33.641Z,9.90
2018-05-15T23:31:01.376Z,10.40
2018-05-15T23:33:29.032Z,10.70
2018-05-15T23:35:58.086Z,10.43
2018-05-15T23:38:26.799Z,10.93
2018-05-15T23:40:54.619Z,10.53
2018-05-15T23:43:22.350Z,10.70
2018-05-15T23:45:50.246Z,10.77
2018-05-15T23:48:18.090Z,11.00
2018-05-15T23:50:46.501Z,10.30
2018-05-15T23:53:14.489Z,10.90
2018-05-15T23:55:43.070Z,12.10
2018-05-15T23:58:11.660Z,11.80
